sensor_id;sensor_type;location;lat;lon;timestamp;P1;durP1;ratioP1;P2;durP2;ratioP2
42602;SDS011;28233;55.748;48.752;2023-04-06T00:01:23;15.18;;;2.90;;
42602;SDS011;28233;55.748;48.752;2023-04-06T00:03:26;9.02;;;2.08;;
42602;SDS011;28233;55.748;48.752;2023-04-06T00:05:29;11.18;;;2.65;;
42602;SDS011;28233;55.748;48.752;2023-04-06T00:07:33;11.10;;;2.33;;
42602;SDS011;28233;55.748;48.752;2023-04-06T00:09:36;7.50;;;2.40;;
42602;SDS011;28233;55.748;48.752;2023-04-06T00:11:38;9.70;;;1.80;;
42602;SDS011;28233;55.748;48.752;2023-04-06T00:13:41;13.02;;;2.40;;
42602;SDS011;28233;55.748;48.752;2023-04-06T00:15:44;14.45;;;2.45;;
42602;SDS011;28233;55.748;48.752;2023-04-06T00:17:46;11.18;;;2.30;;
42602;SDS011;28233;55.748;48.752;2023-04-06T00:19:49;9.82;;;1.90;;
42602;SDS011;28233;55.748;48.752;2023-04-06T00:21:52;10.25;;;2.80;;
42602;SDS011;28233;55.748;48.752;2023-04-06T00:23:55;14.93;;;2.70;;
42602;SDS011;28233;55.748;48.752;2023-04-06T00:25:57;8.60;;;2.10;;
42602;SDS011;28233;55.748;48.752;2023-04-06T00:28:00;5.65;;;1.90;;
42602;SDS011;28233;55.748;48.752;2023-04-06T00:30:03;6.43;;;1.70;;
42602;SDS011;28233;55.748;48.752;2023-04-06T00:32:07;5.05;;;2.40;;
42602;SDS011;28233;55.748;48.752;2023-04-06T00:34:10;5.25;;;1.80;;
42602;SDS011;28233;55.748;48.752;2023-04-06T00:36:12;12.20;;;2.45;;
42602;SDS011;28233;55.748;48.752;2023-04-06T00:38:15;11.27;;;2.30;;
42602;SDS011;28233;55.748;48.752;2023-04-06T00:40:18;7.18;;;2.00;;
42602;SDS011;28233;55.748;48.752;2023-04-06T00:42:21;5.43;;;2.30;;
42602;SDS011;28233;55.748;48.752;2023-04-06T00:44:28;9.55;;;1.90;;
42602;SDS011;28233;55.748;48.752;2023-04-06T00:46:30;8.80;;;2.45;;
42602;SDS011;28233;55.748;48.752;2023-04-06T00:48:33;11.18;;;2.30;;
42602;SDS011;28233;55.748;48.752;2023-04-06T00:50:36;6.07;;;1.77;;
42602;SDS011;28233;55.748;48.752;2023-04-06T00:52:39;8.55;;;2.83;;
42602;SDS011;28233;55.748;48.752;2023-04-06T00:54:42;11.50;;;2.42;;
42602;SDS011;28233;55.748;48.752;2023-04-06T00:56:45;6.90;;;2.45;;
42602;SDS011;28233;55.748;48.752;2023-04-06T00:58:48;10.63;;;2.30;;
42602;SDS011;28233;55.748;48.752;2023-04-06T01:00:52;6.88;;;2.40;;
42602;SDS011;28233;55.748;48.752;2023-04-06T01:02:54;8.73;;;2.22;;
42602;SDS011;28233;55.748;48.752;2023-04-06T01:04:57;5.25;;;1.95;;
42602;SDS011;28233;55.748;48.752;2023-04-06T01:07:00;11.43;;;1.80;;
42602;SDS011;28233;55.748;48.752;2023-04-06T01:09:03;8.18;;;1.73;;
42602;SDS011;28233;55.748;48.752;2023-04-06T01:11:07;5.18;;;1.90;;
42602;SDS011;28233;55.748;48.752;2023-04-06T01:13:09;8.07;;;1.88;;
42602;SDS011;28233;55.748;48.752;2023-04-06T01:15:12;7.25;;;2.20;;
42602;SDS011;28233;55.748;48.752;2023-04-06T01:17:16;8.80;;;2.45;;
42602;SDS011;28233;55.748;48.752;2023-04-06T01:19:19;5.53;;;2.30;;
42602;SDS011;28233;55.748;48.752;2023-04-06T01:21:23;6.90;;;1.98;;
42602;SDS011;28233;55.748;48.752;2023-04-06T01:23:25;10.15;;;2.10;;
42602;SDS011;28233;55.748;48.752;2023-04-06T01:25:28;6.70;;;1.95;;
42602;SDS011;28233;55.748;48.752;2023-04-06T01:27:31;11.45;;;3.03;;
42602;SDS011;28233;55.748;48.752;2023-04-06T01:29:34;4.78;;;1.70;;
42602;SDS011;28233;55.748;48.752;2023-04-06T01:31:37;7.85;;;2.40;;
42602;SDS011;28233;55.748;48.752;2023-04-06T01:33:41;6.78;;;2.97;;
42602;SDS011;28233;55.748;48.752;2023-04-06T01:35:44;5.22;;;1.67;;
42602;SDS011;28233;55.748;48.752;2023-04-06T01:37:47;7.43;;;1.83;;
42602;SDS011;28233;55.748;48.752;2023-04-06T01:39:50;5.95;;;2.10;;
42602;SDS011;28233;55.748;48.752;2023-04-06T01:41:53;5.70;;;2.40;;
42602;SDS011;28233;55.748;48.752;2023-04-06T01:43:55;5.22;;;2.00;;
42602;SDS011;28233;55.748;48.752;2023-04-06T01:45:58;6.28;;;2.65;;
42602;SDS011;28233;55.748;48.752;2023-04-06T01:48:01;7.88;;;2.05;;
42602;SDS011;28233;55.748;48.752;2023-04-06T01:50:04;6.10;;;1.75;;
42602;SDS011;28233;55.748;48.752;2023-04-06T01:52:08;9.27;;;3.05;;
42602;SDS011;28233;55.748;48.752;2023-04-06T01:54:10;8.13;;;1.83;;
42602;SDS011;28233;55.748;48.752;2023-04-06T01:56:13;10.43;;;2.22;;
42602;SDS011;28233;55.748;48.752;2023-04-06T01:58:16;3.85;;;1.60;;
42602;SDS011;28233;55.748;48.752;2023-04-06T02:00:19;7.93;;;1.55;;
42602;SDS011;28233;55.748;48.752;2023-04-06T02:02:21;9.00;;;1.77;;
42602;SDS011;28233;55.748;48.752;2023-04-06T02:04:24;3.78;;;1.52;;
42602;SDS011;28233;55.748;48.752;2023-04-06T02:06:28;5.45;;;2.17;;
42602;SDS011;28233;55.748;48.752;2023-04-06T02:08:30;4.75;;;1.27;;
42602;SDS011;28233;55.748;48.752;2023-04-06T02:10:34;3.17;;;1.77;;
42602;SDS011;28233;55.748;48.752;2023-04-06T02:12:37;3.10;;;1.50;;
42602;SDS011;28233;55.748;48.752;2023-04-06T02:14:39;12.43;;;1.95;;
42602;SDS011;28233;55.748;48.752;2023-04-06T02:16:42;7.72;;;2.03;;
42602;SDS011;28233;55.748;48.752;2023-04-06T02:18:45;6.30;;;1.20;;
42602;SDS011;28233;55.748;48.752;2023-04-06T02:20:48;4.35;;;2.15;;
42602;SDS011;28233;55.748;48.752;2023-04-06T02:22:50;7.15;;;1.40;;
42602;SDS011;28233;55.748;48.752;2023-04-06T02:24:53;6.22;;;1.33;;
42602;SDS011;28233;55.748;48.752;2023-04-06T02:26:56;3.88;;;1.95;;
42602;SDS011;28233;55.748;48.752;2023-04-06T02:28:58;8.45;;;1.45;;
42602;SDS011;28233;55.748;48.752;2023-04-06T02:31:01;6.55;;;2.17;;
42602;SDS011;28233;55.748;48.752;2023-04-06T02:33:04;9.88;;;1.92;;
42602;SDS011;28233;55.748;48.752;2023-04-06T02:35:07;5.35;;;1.73;;
42602;SDS011;28233;55.748;48.752;2023-04-06T02:37:10;4.28;;;1.55;;
42602;SDS011;28233;55.748;48.752;2023-04-06T02:39:13;4.90;;;1.75;;
42602;SDS011;28233;55.748;48.752;2023-04-06T02:41:16;8.10;;;1.63;;
42602;SDS011;28233;55.748;48.752;2023-04-06T02:43:19;7.80;;;1.73;;
42602;SDS011;28233;55.748;48.752;2023-04-06T02:45:21;6.85;;;2.05;;
42602;SDS011;28233;55.748;48.752;2023-04-06T02:47:24;7.75;;;2.25;;
42602;SDS011;28233;55.748;48.752;2023-04-06T02:49:27;6.07;;;1.90;;
42602;SDS011;28233;55.748;48.752;2023-04-06T02:51:30;2.88;;;1.52;;
42602;SDS011;28233;55.748;48.752;2023-04-06T02:53:32;3.92;;;2.22;;
42602;SDS011;28233;55.748;48.752;2023-04-06T02:55:35;8.45;;;2.47;;
42602;SDS011;28233;55.748;48.752;2023-04-06T02:57:38;6.72;;;1.83;;
42602;SDS011;28233;55.748;48.752;2023-04-06T02:59:41;10.25;;;1.50;;
42602;SDS011;28233;55.748;48.752;2023-04-06T03:01:43;4.55;;;1.63;;
42602;SDS011;28233;55.748;48.752;2023-04-06T03:03:46;3.35;;;1.55;;
42602;SDS011;28233;55.748;48.752;2023-04-06T03:05:49;4.13;;;1.33;;
42602;SDS011;28233;55.748;48.752;2023-04-06T03:07:52;9.25;;;1.67;;
42602;SDS011;28233;55.748;48.752;2023-04-06T03:09:55;4.22;;;1.73;;
42602;SDS011;28233;55.748;48.752;2023-04-06T03:11:57;6.00;;;1.67;;
42602;SDS011;28233;55.748;48.752;2023-04-06T03:14:00;5.30;;;1.95;;
42602;SDS011;28233;55.748;48.752;2023-04-06T03:16:03;4.57;;;1.50;;
42602;SDS011;28233;55.748;48.752;2023-04-06T03:18:07;6.55;;;1.60;;
42602;SDS011;28233;55.748;48.752;2023-04-06T03:20:10;2.28;;;1.40;;
42602;SDS011;28233;55.748;48.752;2023-04-06T03:22:13;3.03;;;1.60;;
42602;SDS011;28233;55.748;48.752;2023-04-06T03:24:15;6.13;;;1.85;;
42602;SDS011;28233;55.748;48.752;2023-04-06T03:26:18;7.20;;;1.88;;
42602;SDS011;28233;55.748;48.752;2023-04-06T03:28:21;6.97;;;2.03;;
42602;SDS011;28233;55.748;48.752;2023-04-06T03:30:24;2.42;;;1.30;;
42602;SDS011;28233;55.748;48.752;2023-04-06T03:32:27;10.52;;;1.40;;
42602;SDS011;28233;55.748;48.752;2023-04-06T03:34:30;5.25;;;2.20;;
42602;SDS011;28233;55.748;48.752;2023-04-06T03:36:33;4.40;;;1.60;;
42602;SDS011;28233;55.748;48.752;2023-04-06T03:38:37;4.70;;;2.00;;
42602;SDS011;28233;55.748;48.752;2023-04-06T03:40:42;3.88;;;1.75;;
42602;SDS011;28233;55.748;48.752;2023-04-06T03:42:44;2.75;;;1.83;;
42602;SDS011;28233;55.748;48.752;2023-04-06T03:44:47;5.63;;;1.65;;
42602;SDS011;28233;55.748;48.752;2023-04-06T03:46:50;4.85;;;1.50;;
42602;SDS011;28233;55.748;48.752;2023-04-06T03:48:53;2.97;;;1.65;;
42602;SDS011;28233;55.748;48.752;2023-04-06T03:50:56;2.95;;;1.52;;
42602;SDS011;28233;55.748;48.752;2023-04-06T03:52:58;5.00;;;1.45;;
42602;SDS011;28233;55.748;48.752;2023-04-06T03:55:01;3.20;;;1.33;;
42602;SDS011;28233;55.748;48.752;2023-04-06T03:57:05;6.30;;;2.42;;
42602;SDS011;28233;55.748;48.752;2023-04-06T03:59:07;3.92;;;2.22;;
42602;SDS011;28233;55.748;48.752;2023-04-06T04:01:11;2.47;;;1.50;;
42602;SDS011;28233;55.748;48.752;2023-04-06T04:03:13;4.00;;;1.25;;
42602;SDS011;28233;55.748;48.752;2023-04-06T04:05:16;5.03;;;2.55;;
42602;SDS011;28233;55.748;48.752;2023-04-06T04:07:19;3.30;;;1.88;;
42602;SDS011;28233;55.748;48.752;2023-04-06T04:09:22;5.32;;;1.38;;
42602;SDS011;28233;55.748;48.752;2023-04-06T04:11:25;5.43;;;1.30;;
42602;SDS011;28233;55.748;48.752;2023-04-06T04:13:27;6.88;;;2.00;;
42602;SDS011;28233;55.748;48.752;2023-04-06T04:15:30;5.38;;;1.67;;
42602;SDS011;28233;55.748;48.752;2023-04-06T04:17:33;2.10;;;1.27;;
42602;SDS011;28233;55.748;48.752;2023-04-06T04:19:36;4.95;;;1.88;;
42602;SDS011;28233;55.748;48.752;2023-04-06T04:21:42;2.85;;;1.83;;
42602;SDS011;28233;55.748;48.752;2023-04-06T04:23:46;5.30;;;1.73;;
42602;SDS011;28233;55.748;48.752;2023-04-06T04:25:49;2.15;;;1.17;;
42602;SDS011;28233;55.748;48.752;2023-04-06T04:27:53;5.72;;;1.60;;
42602;SDS011;28233;55.748;48.752;2023-04-06T04:29:56;2.75;;;1.60;;
42602;SDS011;28233;55.748;48.752;2023-04-06T04:31:58;3.60;;;1.50;;
42602;SDS011;28233;55.748;48.752;2023-04-06T04:34:01;4.07;;;1.77;;
42602;SDS011;28233;55.748;48.752;2023-04-06T04:36:04;2.72;;;1.70;;
42602;SDS011;28233;55.748;48.752;2023-04-06T04:38:07;2.40;;;1.30;;
42602;SDS011;28233;55.748;48.752;2023-04-06T04:40:10;4.75;;;1.90;;
42602;SDS011;28233;55.748;48.752;2023-04-06T04:42:13;6.03;;;1.67;;
42602;SDS011;28233;55.748;48.752;2023-04-06T04:44:16;4.25;;;1.83;;
42602;SDS011;28233;55.748;48.752;2023-04-06T04:46:19;6.07;;;1.70;;
42602;SDS011;28233;55.748;48.752;2023-04-06T04:48:22;3.33;;;1.50;;
42602;SDS011;28233;55.748;48.752;2023-04-06T04:50:25;4.68;;;1.33;;
42602;SDS011;28233;55.748;48.752;2023-04-06T04:52:27;4.13;;;1.50;;
42602;SDS011;28233;55.748;48.752;2023-04-06T04:54:30;2.40;;;1.67;;
42602;SDS011;28233;55.748;48.752;2023-04-06T04:56:33;3.65;;;2.38;;
42602;SDS011;28233;55.748;48.752;2023-04-06T04:58:35;2.42;;;1.30;;
42602;SDS011;28233;55.748;48.752;2023-04-06T05:00:38;2.63;;;1.20;;
42602;SDS011;28233;55.748;48.752;2023-04-06T05:02:41;2.85;;;1.55;;
42602;SDS011;28233;55.748;48.752;2023-04-06T05:04:44;2.88;;;1.50;;
42602;SDS011;28233;55.748;48.752;2023-04-06T05:06:47;4.00;;;1.80;;
42602;SDS011;28233;55.748;48.752;2023-04-06T05:08:50;3.95;;;1.63;;
42602;SDS011;28233;55.748;48.752;2023-04-06T05:10:53;4.53;;;1.30;;
42602;SDS011;28233;55.748;48.752;2023-04-06T05:12:55;1.98;;;1.33;;
42602;SDS011;28233;55.748;48.752;2023-04-06T05:14:58;3.60;;;2.03;;
42602;SDS011;28233;55.748;48.752;2023-04-06T05:17:01;4.88;;;1.52;;
42602;SDS011;28233;55.748;48.752;2023-04-06T05:19:04;7.07;;;1.65;;
42602;SDS011;28233;55.748;48.752;2023-04-06T05:21:07;2.28;;;1.60;;
42602;SDS011;28233;55.748;48.752;2023-04-06T05:23:11;5.05;;;1.80;;
42602;SDS011;28233;55.748;48.752;2023-04-06T05:25:15;2.80;;;1.75;;
42602;SDS011;28233;55.748;48.752;2023-04-06T05:27:21;3.50;;;1.38;;
42602;SDS011;28233;55.748;48.752;2023-04-06T05:29:31;2.38;;;1.55;;
42602;SDS011;28233;55.748;48.752;2023-04-06T05:31:34;2.88;;;1.52;;
42602;SDS011;28233;55.748;48.752;2023-04-06T05:33:37;6.45;;;1.95;;
42602;SDS011;28233;55.748;48.752;2023-04-06T05:35:39;3.30;;;1.92;;
42602;SDS011;28233;55.748;48.752;2023-04-06T05:37:43;3.50;;;2.10;;
42602;SDS011;28233;55.748;48.752;2023-04-06T05:39:46;3.45;;;1.75;;
42602;SDS011;28233;55.748;48.752;2023-04-06T05:41:49;3.08;;;1.70;;
42602;SDS011;28233;55.748;48.752;2023-04-06T05:43:53;4.97;;;1.65;;
42602;SDS011;28233;55.748;48.752;2023-04-06T05:45:56;11.93;;;1.83;;
42602;SDS011;28233;55.748;48.752;2023-04-06T05:47:59;6.57;;;2.08;;
42602;SDS011;28233;55.748;48.752;2023-04-06T05:50:02;5.72;;;1.85;;
42602;SDS011;28233;55.748;48.752;2023-04-06T05:52:05;10.05;;;2.65;;
42602;SDS011;28233;55.748;48.752;2023-04-06T05:54:08;5.72;;;1.83;;
42602;SDS011;28233;55.748;48.752;2023-04-06T05:56:11;5.18;;;2.25;;
42602;SDS011;28233;55.748;48.752;2023-04-06T05:58:14;3.05;;;1.60;;
42602;SDS011;28233;55.748;48.752;2023-04-06T06:00:17;8.23;;;2.00;;
42602;SDS011;28233;55.748;48.752;2023-04-06T06:02:20;4.65;;;1.65;;
42602;SDS011;28233;55.748;48.752;2023-04-06T06:04:23;5.28;;;1.60;;
42602;SDS011;28233;55.748;48.752;2023-04-06T06:06:27;7.80;;;1.80;;
42602;SDS011;28233;55.748;48.752;2023-04-06T06:08:30;2.75;;;1.25;;
42602;SDS011;28233;55.748;48.752;2023-04-06T06:10:33;6.38;;;2.08;;
42602;SDS011;28233;55.748;48.752;2023-04-06T06:12:36;3.97;;;1.45;;
42602;SDS011;28233;55.748;48.752;2023-04-06T06:14:39;4.53;;;1.88;;
42602;SDS011;28233;55.748;48.752;2023-04-06T06:16:42;7.60;;;1.60;;
42602;SDS011;28233;55.748;48.752;2023-04-06T06:18:45;1.98;;;1.13;;
42602;SDS011;28233;55.748;48.752;2023-04-06T06:20:48;3.50;;;1.42;;
42602;SDS011;28233;55.748;48.752;2023-04-06T06:22:51;2.90;;;1.23;;
42602;SDS011;28233;55.748;48.752;2023-04-06T06:24:55;8.93;;;1.80;;
42602;SDS011;28233;55.748;48.752;2023-04-06T06:26:58;2.30;;;1.25;;
42602;SDS011;28233;55.748;48.752;2023-04-06T06:29:00;3.75;;;2.05;;
42602;SDS011;28233;55.748;48.752;2023-04-06T06:31:03;4.43;;;1.55;;
42602;SDS011;28233;55.748;48.752;2023-04-06T06:33:07;4.35;;;1.90;;
42602;SDS011;28233;55.748;48.752;2023-04-06T06:35:09;3.45;;;1.38;;
42602;SDS011;28233;55.748;48.752;2023-04-06T06:37:12;3.97;;;1.60;;
42602;SDS011;28233;55.748;48.752;2023-04-06T06:39:15;4.03;;;1.60;;
42602;SDS011;28233;55.748;48.752;2023-04-06T06:41:18;6.43;;;1.85;;
42602;SDS011;28233;55.748;48.752;2023-04-06T06:43:20;3.88;;;1.63;;
42602;SDS011;28233;55.748;48.752;2023-04-06T06:45:23;3.08;;;1.60;;
42602;SDS011;28233;55.748;48.752;2023-04-06T06:47:27;3.70;;;2.22;;
42602;SDS011;28233;55.748;48.752;2023-04-06T06:49:30;3.45;;;2.03;;
42602;SDS011;28233;55.748;48.752;2023-04-06T06:51:33;2.20;;;1.48;;
42602;SDS011;28233;55.748;48.752;2023-04-06T06:53:36;3.28;;;2.15;;
42602;SDS011;28233;55.748;48.752;2023-04-06T06:55:39;4.25;;;1.50;;
42602;SDS011;28233;55.748;48.752;2023-04-06T06:57:42;4.18;;;1.75;;
42602;SDS011;28233;55.748;48.752;2023-04-06T06:59:46;2.35;;;1.40;;
42602;SDS011;28233;55.748;48.752;2023-04-06T07:01:53;2.45;;;1.38;;
42602;SDS011;28233;55.748;48.752;2023-04-06T07:03:56;4.35;;;2.10;;
42602;SDS011;28233;55.748;48.752;2023-04-06T07:05:59;3.75;;;1.77;;
42602;SDS011;28233;55.748;48.752;2023-04-06T07:08:01;8.68;;;1.88;;
42602;SDS011;28233;55.748;48.752;2023-04-06T07:10:04;2.13;;;1.35;;
42602;SDS011;28233;55.748;48.752;2023-04-06T07:12:08;3.90;;;1.48;;
42602;SDS011;28233;55.748;48.752;2023-04-06T07:14:10;4.93;;;1.83;;
42602;SDS011;28233;55.748;48.752;2023-04-06T07:16:13;5.90;;;1.98;;
42602;SDS011;28233;55.748;48.752;2023-04-06T07:18:17;3.78;;;1.67;;
42602;SDS011;28233;55.748;48.752;2023-04-06T07:20:20;5.55;;;1.65;;
42602;SDS011;28233;55.748;48.752;2023-04-06T07:22:23;4.22;;;1.77;;
42602;SDS011;28233;55.748;48.752;2023-04-06T07:24:26;3.65;;;1.73;;
42602;SDS011;28233;55.748;48.752;2023-04-06T07:26:29;4.25;;;1.73;;
42602;SDS011;28233;55.748;48.752;2023-04-06T07:28:32;2.60;;;1.55;;
42602;SDS011;28233;55.748;48.752;2023-04-06T07:30:34;6.50;;;2.60;;
42602;SDS011;28233;55.748;48.752;2023-04-06T07:32:39;3.33;;;1.65;;
42602;SDS011;28233;55.748;48.752;2023-04-06T07:34:42;3.80;;;1.48;;
42602;SDS011;28233;55.748;48.752;2023-04-06T07:36:47;4.65;;;1.98;;
42602;SDS011;28233;55.748;48.752;2023-04-06T07:38:50;4.47;;;1.75;;
42602;SDS011;28233;55.748;48.752;2023-04-06T07:40:53;3.92;;;2.17;;
42602;SDS011;28233;55.748;48.752;2023-04-06T07:42:56;2.45;;;1.42;;
42602;SDS011;28233;55.748;48.752;2023-04-06T07:44:59;7.50;;;1.30;;
42602;SDS011;28233;55.748;48.752;2023-04-06T07:47:02;4.60;;;1.65;;
42602;SDS011;28233;55.748;48.752;2023-04-06T07:49:04;3.15;;;1.60;;
42602;SDS011;28233;55.748;48.752;2023-04-06T07:51:07;8.13;;;1.60;;
42602;SDS011;28233;55.748;48.752;2023-04-06T07:53:13;2.50;;;1.35;;
42602;SDS011;28233;55.748;48.752;2023-04-06T07:55:16;3.97;;;1.48;;
42602;SDS011;28233;55.748;48.752;2023-04-06T07:57:19;3.65;;;1.20;;
42602;SDS011;28233;55.748;48.752;2023-04-06T07:59:22;2.80;;;1.83;;
42602;SDS011;28233;55.748;48.752;2023-04-06T08:01:26;2.70;;;1.90;;
42602;SDS011;28233;55.748;48.752;2023-04-06T08:03:32;2.45;;;1.27;;
42602;SDS011;28233;55.748;48.752;2023-04-06T08:05:36;1.98;;;1.17;;
42602;SDS011;28233;55.748;48.752;2023-04-06T08:07:39;6.28;;;2.10;;
42602;SDS011;28233;55.748;48.752;2023-04-06T08:09:43;4.72;;;1.60;;
42602;SDS011;28233;55.748;48.752;2023-04-06T08:11:46;2.88;;;1.55;;
42602;SDS011;28233;55.748;48.752;2023-04-06T08:13:52;2.50;;;1.60;;
42602;SDS011;28233;55.748;48.752;2023-04-06T08:15:56;3.65;;;1.20;;
42602;SDS011;28233;55.748;48.752;2023-04-06T08:18:01;4.25;;;1.77;;
42602;SDS011;28233;55.748;48.752;2023-04-06T08:20:05;3.72;;;1.13;;
42602;SDS011;28233;55.748;48.752;2023-04-06T08:22:08;3.00;;;1.58;;
42602;SDS011;28233;55.748;48.752;2023-04-06T08:24:10;3.75;;;1.75;;
42602;SDS011;28233;55.748;48.752;2023-04-06T08:26:14;4.28;;;1.30;;
42602;SDS011;28233;55.748;48.752;2023-04-06T08:28:16;4.15;;;1.55;;
42602;SDS011;28233;55.748;48.752;2023-04-06T08:30:19;2.55;;;1.65;;
42602;SDS011;28233;55.748;48.752;2023-04-06T08:32:23;2.85;;;1.45;;
42602;SDS011;28233;55.748;48.752;2023-04-06T08:34:27;4.85;;;1.30;;
42602;SDS011;28233;55.748;48.752;2023-04-06T08:36:30;2.45;;;1.30;;
42602;SDS011;28233;55.748;48.752;2023-04-06T08:38:32;2.65;;;1.60;;
42602;SDS011;28233;55.748;48.752;2023-04-06T08:40:36;2.88;;;1.85;;
42602;SDS011;28233;55.748;48.752;2023-04-06T08:42:44;5.72;;;1.42;;
42602;SDS011;28233;55.748;48.752;2023-04-06T08:44:52;3.38;;;1.27;;
42602;SDS011;28233;55.748;48.752;2023-04-06T08:46:55;6.45;;;1.55;;
42602;SDS011;28233;55.748;48.752;2023-04-06T08:49:02;3.13;;;1.00;;
42602;SDS011;28233;55.748;48.752;2023-04-06T08:51:05;5.60;;;1.15;;
42602;SDS011;28233;55.748;48.752;2023-04-06T08:53:08;1.58;;;1.17;;
42602;SDS011;28233;55.748;48.752;2023-04-06T08:55:11;4.18;;;1.77;;
42602;SDS011;28233;55.748;48.752;2023-04-06T08:57:14;4.70;;;1.40;;
42602;SDS011;28233;55.748;48.752;2023-04-06T08:59:21;1.70;;;1.10;;
42602;SDS011;28233;55.748;48.752;2023-04-06T09:01:27;2.03;;;1.10;;
42602;SDS011;28233;55.748;48.752;2023-04-06T09:03:31;1.88;;;1.23;;
42602;SDS011;28233;55.748;48.752;2023-04-06T09:05:37;1.67;;;1.05;;
42602;SDS011;28233;55.748;48.752;2023-04-06T09:07:41;4.03;;;1.30;;
42602;SDS011;28233;55.748;48.752;2023-04-06T09:09:44;2.30;;;0.63;;
42602;SDS011;28233;55.748;48.752;2023-04-06T09:11:50;2.33;;;1.10;;
42602;SDS011;28233;55.748;48.752;2023-04-06T09:13:54;2.03;;;1.02;;
42602;SDS011;28233;55.748;48.752;2023-04-06T09:16:02;3.25;;;1.15;;
42602;SDS011;28233;55.748;48.752;2023-04-06T09:18:08;3.20;;;1.05;;
42602;SDS011;28233;55.748;48.752;2023-04-06T09:20:13;2.45;;;1.27;;
42602;SDS011;28233;55.748;48.752;2023-04-06T09:22:23;1.95;;;0.90;;
42602;SDS011;28233;55.748;48.752;2023-04-06T09:24:27;3.47;;;1.00;;
42602;SDS011;28233;55.748;48.752;2023-04-06T09:26:30;7.63;;;0.93;;
42602;SDS011;28233;55.748;48.752;2023-04-06T09:30:48;3.35;;;1.35;;
42602;SDS011;28233;55.748;48.752;2023-04-06T09:32:52;3.40;;;0.80;;
42602;SDS011;28233;55.748;48.752;2023-04-06T09:35:09;3.65;;;0.95;;
42602;SDS011;28233;55.748;48.752;2023-04-06T09:37:13;4.78;;;1.02;;
42602;SDS011;28233;55.748;48.752;2023-04-06T09:39:21;1.45;;;1.02;;
42602;SDS011;28233;55.748;48.752;2023-04-06T09:41:28;2.15;;;0.80;;
42602;SDS011;28233;55.748;48.752;2023-04-06T09:43:32;1.05;;;0.63;;
42602;SDS011;28233;55.748;48.752;2023-04-06T09:45:35;3.20;;;0.90;;
42602;SDS011;28233;55.748;48.752;2023-04-06T09:47:39;8.27;;;1.05;;
42602;SDS011;28233;55.748;48.752;2023-04-06T09:49:45;1.80;;;0.93;;
42602;SDS011;28233;55.748;48.752;2023-04-06T09:51:53;2.35;;;1.00;;
42602;SDS011;28233;55.748;48.752;2023-04-06T09:54:00;1.77;;;0.68;;
42602;SDS011;28233;55.748;48.752;2023-04-06T09:56:06;1.25;;;0.70;;
42602;SDS011;28233;55.748;48.752;2023-04-06T09:58:15;1.55;;;0.80;;
42602;SDS011;28233;55.748;48.752;2023-04-06T10:00:23;3.78;;;1.05;;
42602;SDS011;28233;55.748;48.752;2023-04-06T10:06:46;1.50;;;1.02;;
42602;SDS011;28233;55.748;48.752;2023-04-06T10:08:55;2.22;;;0.82;;
42602;SDS011;28233;55.748;48.752;2023-04-06T10:11:03;1.23;;;0.60;;
42602;SDS011;28233;55.748;48.752;2023-04-06T10:13:12;6.28;;;1.00;;
42602;SDS011;28233;55.748;48.752;2023-04-06T10:15:33;1.77;;;0.88;;
42602;SDS011;28233;55.748;48.752;2023-04-06T10:17:39;2.42;;;0.70;;
42602;SDS011;28233;55.748;48.752;2023-04-06T10:19:53;3.72;;;1.40;;
42602;SDS011;28233;55.748;48.752;2023-04-06T10:22:15;2.80;;;1.20;;
42602;SDS011;28233;55.748;48.752;2023-04-06T10:24:49;6.85;;;1.25;;
42602;SDS011;28233;55.748;48.752;2023-04-06T10:26:58;12.48;;;1.45;;
42602;SDS011;28233;55.748;48.752;2023-04-06T10:29:04;2.08;;;0.68;;
42602;SDS011;28233;55.748;48.752;2023-04-06T10:31:08;1.50;;;0.45;;
42602;SDS011;28233;55.748;48.752;2023-04-06T10:33:14;1.95;;;0.95;;
42602;SDS011;28233;55.748;48.752;2023-04-06T10:35:18;3.47;;;0.88;;
42602;SDS011;28233;55.748;48.752;2023-04-06T10:37:21;23.20;;;4.10;;
42602;SDS011;28233;55.748;48.752;2023-04-06T10:39:24;3.50;;;0.90;;
42602;SDS011;28233;55.748;48.752;2023-04-06T10:41:44;1.55;;;0.70;;
42602;SDS011;28233;55.748;48.752;2023-04-06T10:46:00;3.05;;;0.93;;
42602;SDS011;28233;55.748;48.752;2023-04-06T10:48:12;2.08;;;0.63;;
42602;SDS011;28233;55.748;48.752;2023-04-06T10:50:17;4.53;;;0.73;;
42602;SDS011;28233;55.748;48.752;2023-04-06T10:52:19;3.97;;;0.70;;
42602;SDS011;28233;55.748;48.752;2023-04-06T10:54:23;5.88;;;0.90;;
42602;SDS011;28233;55.748;48.752;2023-04-06T10:56:27;2.25;;;1.08;;
42602;SDS011;28233;55.748;48.752;2023-04-06T10:58:32;1.20;;;0.50;;
42602;SDS011;28233;55.748;48.752;2023-04-06T11:00:35;23.33;;;2.05;;
42602;SDS011;28233;55.748;48.752;2023-04-06T11:02:58;8.60;;;1.15;;
42602;SDS011;28233;55.748;48.752;2023-04-06T11:05:02;1.35;;;0.50;;
42602;SDS011;28233;55.748;48.752;2023-04-06T11:07:07;2.25;;;0.52;;
42602;SDS011;28233;55.748;48.752;2023-04-06T11:09:10;2.05;;;1.10;;
42602;SDS011;28233;55.748;48.752;2023-04-06T11:11:14;4.13;;;0.57;;
42602;SDS011;28233;55.748;48.752;2023-04-06T11:13:18;27.02;;;3.33;;
42602;SDS011;28233;55.748;48.752;2023-04-06T11:15:21;0.77;;;0.70;;
42602;SDS011;28233;55.748;48.752;2023-04-06T11:17:30;2.70;;;0.40;;
42602;SDS011;28233;55.748;48.752;2023-04-06T11:19:34;1.65;;;0.40;;
42602;SDS011;28233;55.748;48.752;2023-04-06T11:21:41;9.68;;;0.82;;
42602;SDS011;28233;55.748;48.752;2023-04-06T11:23:46;1.95;;;0.70;;
42602;SDS011;28233;55.748;48.752;2023-04-06T11:25:52;2.05;;;0.50;;
42602;SDS011;28233;55.748;48.752;2023-04-06T11:27:55;2.88;;;0.45;;
42602;SDS011;28233;55.748;48.752;2023-04-06T11:29:59;5.13;;;0.40;;
42602;SDS011;28233;55.748;48.752;2023-04-06T11:32:05;3.50;;;0.55;;
42602;SDS011;28233;55.748;48.752;2023-04-06T11:34:10;1.70;;;0.45;;
42602;SDS011;28233;55.748;48.752;2023-04-06T11:36:13;2.17;;;0.40;;
42602;SDS011;28233;55.748;48.752;2023-04-06T11:38:18;0.90;;;0.50;;
42602;SDS011;28233;55.748;48.752;2023-04-06T11:40:23;1.70;;;0.60;;
42602;SDS011;28233;55.748;48.752;2023-04-06T11:42:28;1.40;;;0.47;;
42602;SDS011;28233;55.748;48.752;2023-04-06T11:44:32;1.33;;;0.32;;
42602;SDS011;28233;55.748;48.752;2023-04-06T11:46:35;0.98;;;0.30;;
42602;SDS011;28233;55.748;48.752;2023-04-06T11:48:43;0.50;;;0.25;;
42602;SDS011;28233;55.748;48.752;2023-04-06T11:50:47;0.30;;;0.20;;
42602;SDS011;28233;55.748;48.752;2023-04-06T11:52:58;1.02;;;0.40;;
42602;SDS011;28233;55.748;48.752;2023-04-06T11:55:16;2.13;;;0.30;;
42602;SDS011;28233;55.748;48.752;2023-04-06T11:57:23;1.95;;;0.45;;
42602;SDS011;28233;55.748;48.752;2023-04-06T11:59:27;0.45;;;0.30;;
42602;SDS011;28233;55.748;48.752;2023-04-06T12:01:31;2.85;;;0.40;;
42602;SDS011;28233;55.748;48.752;2023-04-06T12:03:40;0.95;;;0.30;;
42602;SDS011;28233;55.748;48.752;2023-04-06T12:05:43;0.73;;;0.30;;
42602;SDS011;28233;55.748;48.752;2023-04-06T12:07:47;0.93;;;0.20;;
42602;SDS011;28233;55.748;48.752;2023-04-06T12:09:50;3.03;;;0.35;;
42602;SDS011;28233;55.748;48.752;2023-04-06T12:11:53;1.23;;;0.50;;
42602;SDS011;28233;55.748;48.752;2023-04-06T12:13:56;2.42;;;0.40;;
42602;SDS011;28233;55.748;48.752;2023-04-06T12:15:59;2.85;;;0.30;;
42602;SDS011;28233;55.748;48.752;2023-04-06T12:18:01;0.55;;;0.30;;
42602;SDS011;28233;55.748;48.752;2023-04-06T12:20:04;0.77;;;0.30;;
42602;SDS011;28233;55.748;48.752;2023-04-06T12:22:26;1.23;;;0.20;;
42602;SDS011;28233;55.748;48.752;2023-04-06T12:24:29;1.50;;;0.40;;